createdAt,value
2018-03-15T08:28:10.318Z,92.50
2018-03-15T08:30:38.578Z,91.90
2018-03-15T08:33:06.042Z,91.90
2018-03-15T08:35:35.046Z,91.80
2018-03-15T08:38:03.293Z,91.80
2018-03-15T08:40:30.763Z,91.80
2018-03-15T08:42:58.250Z,91.70
2018-03-15T08:45:26.488Z,91.70
2018-03-15T08:47:53.952Z,91.70
2018-03-15T08:50:21.434Z,91.50
2018-03-15T08:52:49.695Z,91.70
2018-03-15T08:55:17.976Z,91.50
2018-03-15T08:57:45.477Z,91.50
2018-03-15T09:00:12.966Z,91.30
2018-03-15T09:02:41.370Z,91.40
2018-03-15T09:05:08.842Z,90.90
2018-03-15T09:07:37.111Z,90.50
2018-03-15T09:10:05.366Z,89.70
2018-03-15T09:12:32.834Z,89.60
2018-03-15T09:15:00.318Z,88.60
2018-03-15T09:17:28.558Z,87.40
2018-03-15T09:19:56.042Z,87.30
2018-03-15T09:22:24.281Z,87.90
2018-03-15T09:24:51.773Z,87.70
2018-03-15T09:27:20.096Z,86.40
2018-03-15T09:29:47.562Z,86.40
2018-03-15T09:32:15.061Z,85.60
2018-03-15T09:34:43.305Z,85.30
2018-03-15T09:37:10.806Z,85.10
2018-03-15T09:39:39.055Z,84.60
2018-03-15T09:42:06.536Z,84.50
2018-03-15T09:44:34.794Z,83.30
2018-03-15T09:47:02.282Z,83.30
2018-03-15T09:49:30.558Z,82.80
2018-03-15T09:51:58.061Z,82.80
2018-03-15T09:54:25.565Z,82.00
2018-03-15T09:56:53.827Z,81.90
2018-03-15T09:59:21.338Z,81.90
2018-03-15T10:01:48.854Z,82.30
2018-03-15T10:04:17.114Z,82.60
2018-03-15T10:06:44.603Z,82.50
2018-03-15T10:09:12.106Z,81.60
2018-03-15T10:11:39.582Z,82.10
2018-03-15T10:14:07.084Z,80.80
2018-03-15T10:16:34.584Z,80.70
2018-03-15T10:19:02.063Z,81.30
2018-03-15T10:21:29.650Z,81.00
2018-03-15T10:23:57.902Z,80.90
2018-03-15T10:26:25.413Z,80.90
2018-03-15T10:28:52.902Z,80.20
2018-03-15T10:31:20.396Z,80.20
2018-03-15T10:33:48.652Z,78.60
2018-03-15T10:36:16.132Z,78.50
2018-03-15T10:38:44.402Z,78.40
2018-03-15T10:41:12.658Z,78.70
2018-03-15T10:43:40.158Z,78.60
2018-03-15T10:46:08.419Z,77.20
2018-03-15T10:48:36.674Z,77.10
2018-03-15T10:51:04.170Z,77.10
2018-03-15T10:53:31.648Z,77.50
2018-03-15T10:55:59.126Z,77.50
2018-03-15T10:58:26.644Z,77.10
2018-03-15T11:00:59.825Z,76.70
2018-03-15T11:03:33.690Z,76.60
2018-03-15T11:06:06.894Z,76.60
2018-03-15T11:08:35.322Z,76.70
2018-03-15T11:11:02.827Z,75.90
2018-03-15T11:13:30.379Z,76.30
2018-03-15T11:16:20.162Z,75.80
2018-03-15T11:18:47.643Z,76.20
2018-03-15T11:21:15.923Z,76.90
2018-03-15T11:23:44.255Z,77.60
2018-03-15T11:26:11.696Z,77.60
2018-03-15T11:28:39.257Z,76.80
2018-03-15T11:31:06.738Z,76.80
2018-03-15T11:33:34.245Z,77.10
2018-03-15T11:36:02.498Z,76.80
2018-03-15T11:38:30.012Z,76.80
2018-03-15T11:40:57.533Z,77.00
2018-03-15T11:43:25.020Z,76.40
2018-03-15T11:45:52.578Z,76.10
2018-03-15T11:48:20.079Z,76.20
2018-03-15T11:50:47.722Z,76.40
2018-03-15T11:53:15.390Z,75.50
2018-03-15T11:55:42.930Z,75.80
2018-03-15T11:58:10.472Z,75.00
2018-03-15T12:00:38.735Z,75.50
2018-03-15T12:03:06.223Z,75.50
2018-03-15T12:05:33.723Z,76.00
2018-03-15T12:08:01.222Z,75.20
2018-03-15T12:10:29.553Z,73.70
2018-03-15T12:12:57.075Z,73.70
2018-03-15T12:15:24.577Z,75.40
2018-03-15T12:17:52.087Z,75.00
2018-03-15T12:20:20.331Z,74.40
2018-03-15T12:22:49.334Z,74.60
2018-03-15T12:25:16.810Z,74.60
2018-03-15T12:27:45.044Z,74.80
2018-03-15T12:30:12.542Z,74.60
2018-03-15T12:32:40.785Z,75.50
2018-03-15T12:35:08.262Z,75.40
2018-03-15T12:37:35.738Z,75.90
2018-03-15T12:40:03.978Z,76.30
2018-03-15T12:42:31.468Z,76.20
2018-03-15T12:44:59.778Z,76.50
2018-03-15T12:47:27.246Z,76.50
2018-03-15T12:49:54.731Z,74.90
2018-03-15T12:52:22.218Z,74.60
2018-03-15T12:54:50.474Z,74.70
2018-03-15T12:57:17.951Z,74.60
2018-03-15T12:59:46.234Z,75.00
2018-03-15T13:02:14.786Z,75.70
2018-03-15T13:04:42.262Z,75.70
2018-03-15T13:07:09.774Z,75.20
2018-03-15T13:09:37.273Z,76.60
2018-03-15T13:12:04.823Z,76.10
2018-03-15T13:14:32.302Z,76.60
2018-03-15T13:17:00.559Z,76.90
2018-03-15T13:19:28.867Z,76.90
2018-03-15T13:21:57.098Z,76.30
2018-03-15T13:24:24.558Z,76.30
2018-03-15T13:26:52.089Z,76.50
2018-03-15T13:29:19.667Z,76.90
2018-03-15T13:31:47.222Z,76.80
2018-03-15T13:34:14.693Z,76.50
2018-03-15T13:36:42.177Z,77.00
2018-03-15T13:39:09.669Z,75.90
2018-03-15T13:41:37.204Z,75.40
2018-03-15T13:44:05.484Z,73.40
2018-03-15T13:46:33.905Z,73.50
2018-03-15T13:49:02.508Z,73.50
2018-03-15T13:51:29.998Z,73.80
2018-03-15T13:53:58.317Z,74.10
2018-03-15T13:56:26.354Z,74.00
2018-03-15T13:58:54.609Z,73.60
2018-03-15T14:01:22.071Z,73.60
2018-03-15T14:03:50.347Z,72.40
2018-03-15T14:06:17.824Z,72.30
2018-03-15T14:08:46.102Z,73.10
2018-03-15T14:11:14.363Z,73.30
2018-03-15T14:13:41.834Z,73.30
2018-03-15T14:16:11.263Z,74.20
2018-03-15T14:18:38.758Z,73.50
2018-03-15T14:21:06.267Z,73.00
2018-03-15T14:23:34.569Z,73.30
2018-03-15T14:26:02.137Z,73.20
2018-03-15T14:28:29.684Z,73.80
2018-03-15T14:30:58.186Z,74.20
2018-03-15T14:33:25.799Z,75.00
2018-03-15T14:35:54.066Z,74.70
2018-03-15T14:38:22.310Z,75.10
2018-03-15T14:40:49.790Z,75.10
2018-03-15T14:43:17.301Z,76.50
2018-03-15T14:45:44.868Z,76.80
2018-03-15T14:48:12.356Z,77.00
2018-03-15T14:50:39.843Z,77.80
2018-03-15T14:53:08.109Z,77.40
2018-03-15T14:55:35.663Z,77.30
2018-03-15T14:58:04.008Z,76.50
2018-03-15T15:00:31.471Z,76.50
2018-03-15T15:02:59.047Z,76.60
2018-03-15T15:05:26.582Z,75.90
2018-03-15T15:07:55.069Z,74.90
2018-03-15T15:10:22.612Z,73.40
2018-03-15T15:12:50.191Z,72.50
2018-03-15T15:15:18.448Z,70.40
2018-03-15T15:17:46.014Z,70.30
2018-03-15T15:20:14.606Z,71.40
2018-03-15T15:22:42.116Z,71.70
2018-03-15T15:25:10.840Z,71.40
2018-03-15T15:27:38.369Z,71.20
2018-03-15T15:30:06.650Z,72.00
2018-03-15T15:32:34.914Z,72.10
2018-03-15T15:35:03.207Z,72.00
2018-03-15T15:37:31.442Z,73.20
2018-03-15T15:39:58.939Z,73.20
2018-03-15T15:42:27.262Z,72.90
2018-03-15T15:44:54.748Z,72.80
2018-03-15T15:47:22.270Z,72.30
2018-03-15T15:49:49.754Z,73.20
2018-03-15T15:52:17.256Z,74.00
2018-03-15T15:54:45.507Z,75.10
2018-03-15T15:57:13.803Z,75.60
2018-03-15T15:59:42.042Z,76.20
2018-03-15T16:02:09.542Z,76.10
2018-03-15T16:04:37.859Z,77.10
2018-03-15T16:07:05.354Z,77.00
2018-03-15T16:09:32.881Z,77.60
2018-03-15T16:12:00.422Z,76.50
2018-03-15T16:14:28.049Z,76.40
2018-03-15T16:16:56.327Z,77.80
2018-03-15T16:19:24.622Z,77.90
2018-03-15T16:21:52.153Z,77.90
2018-03-15T16:24:19.674Z,77.90
2018-03-15T16:26:47.170Z,78.20
2018-03-15T16:29:15.411Z,79.40
2018-03-15T16:31:42.895Z,78.70
2018-03-15T16:34:11.944Z,78.90
2018-03-15T16:36:39.422Z,78.90
2018-03-15T16:39:07.333Z,79.00
2018-03-15T16:41:36.389Z,78.70
2018-03-15T16:44:03.871Z,78.70
2018-03-15T16:46:31.341Z,79.60
2018-03-15T16:48:59.644Z,79.60
2018-03-15T16:51:27.094Z,79.60
2018-03-15T16:53:55.379Z,80.20
2018-03-15T16:56:22.894Z,80.20
2018-03-15T16:58:50.376Z,80.20
2018-03-15T17:01:18.687Z,81.00
2018-03-15T17:03:46.188Z,80.80
2018-03-15T17:06:13.674Z,80.50
2018-03-15T17:08:41.948Z,80.80
2018-03-15T17:11:10.199Z,80.90
2018-03-15T17:13:37.818Z,80.80
2018-03-15T17:16:05.410Z,81.10
2018-03-15T17:18:32.990Z,80.80
2018-03-15T17:21:00.906Z,80.60
2018-03-15T17:23:28.380Z,80.90
2018-03-15T17:25:56.201Z,80.90
2018-03-15T17:28:23.817Z,80.90
2018-03-15T17:30:51.305Z,81.40
2018-03-15T17:33:19.708Z,81.00
2018-03-15T17:35:47.409Z,81.00
2018-03-15T17:38:15.003Z,81.30
2018-03-15T17:40:42.515Z,81.60
2018-03-15T17:43:10.087Z,81.40
2018-03-15T17:45:37.583Z,81.70
2018-03-15T17:48:05.050Z,81.90
2018-03-15T17:50:32.559Z,82.20
2018-03-15T17:53:00.035Z,82.40
2018-03-15T17:55:27.542Z,83.00
2018-03-15T17:57:55.082Z,85.50
2018-03-15T18:00:23.355Z,88.60
2018-03-15T18:02:50.939Z,88.50
2018-03-15T18:05:19.203Z,91.10
2018-03-15T18:07:46.802Z,91.10
2018-03-15T18:10:17.116Z,91.80
2018-03-15T18:12:44.610Z,92.80
2018-03-15T18:15:16.877Z,92.30
2018-03-15T18:17:44.359Z,93.10
2018-03-15T18:20:11.931Z,93.50
2018-03-15T18:22:39.454Z,94.70
2018-03-15T18:25:06.958Z,94.90
2018-03-15T18:27:35.246Z,94.60
2018-03-15T18:30:03.482Z,96.30
2018-03-15T18:32:31.091Z,96.30
2018-03-15T18:34:58.626Z,96.70
2018-03-15T18:37:26.859Z,98.10
2018-03-15T18:39:54.356Z,98.10
2018-03-15T18:42:21.823Z,97.50
2018-03-15T18:44:50.070Z,99.10
2018-03-15T18:47:17.538Z,99.00
2018-03-15T18:49:45.038Z,99.70
2018-03-15T18:52:12.527Z,99.80
2018-03-15T18:54:40.002Z,99.90
2018-03-15T18:57:07.503Z,99.90
2018-03-15T18:59:34.999Z,99.90
2018-03-15T19:02:02.505Z,99.90
2018-03-15T19:04:30.753Z,99.90
2018-03-15T19:06:58.281Z,99.90
2018-03-15T19:09:25.758Z,99.90
2018-03-15T19:11:53.283Z,99.90
2018-03-15T19:15:57.473Z,99.90
2018-03-15T19:18:24.980Z,99.90
2018-03-15T19:20:52.693Z,99.90
2018-03-15T19:23:20.228Z,99.90
2018-03-15T19:25:48.198Z,99.90
2018-03-15T19:28:15.774Z,99.90
2018-03-15T19:30:44.315Z,99.90
2018-03-15T19:33:11.877Z,99.90
2018-03-15T19:35:39.731Z,99.90
2018-03-15T19:38:07.248Z,99.90
2018-03-15T19:40:34.747Z,99.90
2018-03-15T19:43:02.319Z,99.90
2018-03-15T19:45:29.835Z,99.90
2018-03-15T19:47:57.429Z,99.90
2018-03-15T19:50:25.029Z,99.90
2018-03-15T19:52:52.655Z,99.90
2018-03-15T19:55:20.227Z,99.90
2018-03-15T19:57:47.772Z,99.90
2018-03-15T20:00:15.276Z,99.90
2018-03-15T20:02:42.759Z,99.90
2018-03-15T20:05:10.222Z,99.90
2018-03-15T20:07:38.479Z,99.90
2018-03-15T20:10:05.992Z,99.90
2018-03-15T20:12:33.594Z,99.90
2018-03-15T20:15:01.478Z,99.90
2018-03-15T20:17:29.779Z,99.90
2018-03-15T20:19:58.011Z,99.90
2018-03-15T20:22:31.323Z,99.90
2018-03-15T20:24:58.888Z,99.90
2018-03-15T20:27:31.976Z,99.90
2018-03-15T20:30:00.229Z,99.90
2018-03-15T20:32:33.306Z,99.90
2018-03-15T20:35:00.801Z,99.90
2018-03-15T20:37:29.065Z,99.90
2018-03-15T20:40:02.346Z,99.90
2018-03-15T20:42:29.833Z,99.90
2018-03-15T20:44:58.186Z,99.90
2018-03-15T20:47:31.478Z,99.90
2018-03-15T20:49:59.001Z,99.90
2018-03-15T20:52:26.499Z,99.90
2018-03-15T20:54:54.913Z,99.90
2018-03-15T20:57:23.169Z,99.90
2018-03-15T20:59:50.672Z,99.90
2018-03-15T21:02:18.186Z,99.90
2018-03-15T21:04:45.736Z,99.90
2018-03-15T21:07:13.237Z,99.90
2018-03-15T21:09:40.738Z,99.90
2018-03-15T21:12:08.242Z,99.90
2018-03-15T21:14:36.509Z,99.90
2018-03-15T21:17:04.823Z,99.90
2018-03-15T21:19:32.331Z,99.90
2018-03-15T21:21:59.909Z,99.90
2018-03-15T21:24:27.432Z,99.90
2018-03-15T21:26:55.025Z,99.90
2018-03-15T21:29:22.466Z,99.90
2018-03-15T21:31:50.047Z,99.90
2018-03-15T21:34:18.325Z,99.90
2018-03-15T21:36:46.570Z,99.90
2018-03-15T21:39:14.095Z,99.90
2018-03-15T21:41:41.671Z,99.90
2018-03-15T21:44:09.220Z,99.90
2018-03-15T21:46:37.469Z,99.90
2018-03-15T21:49:05.003Z,99.90
2018-03-15T21:51:32.477Z,99.90
2018-03-15T21:54:00.749Z,99.90
2018-03-15T21:56:29.033Z,99.90
2018-03-15T21:58:57.271Z,99.90
2018-03-15T22:01:24.762Z,99.90
2018-03-15T22:03:53.001Z,99.90
2018-03-15T22:06:20.492Z,99.90
2018-03-15T23:49:41.759Z,99.90
2018-03-15T23:52:09.242Z,99.90
2018-03-15T23:54:36.713Z,99.90
2018-03-15T23:57:04.194Z,99.90
2018-03-15T23:59:32.441Z,99.90
